Terminal Aerodrome Forecast
Issued by NWS

Current Version | Previous Version | Graphics & Text | Print | Product List | Glossary On
Versions: 1 2 3 4 5 6 7 8 9 10 11 12 13 14 15 16 17 18 19 20
000
FTUS41 KILN 210449 AAC
TAFLUK
TAF AMD
KLUK 210449Z 2105/2124 19010KT P6SM BKN015
      TEMPO 2105/2106 4SM -SHRA
     FM210900 26008KT P6SM BKN025
     FM211400 28011KT P6SM BKN035
     FM212300 31005KT P6SM SCT250=

USA.gov is the U.S. government's official web portal to all federal, state and local government web resources and services.